Aviation Digital Data Service (ADDS)

Output produced by METARs form (0111 UTC 24 May 2022)
found at http://www.aviationweather.gov/metar/data/
 
FCBB 240000Z 27004KT 240V310 8000 NSC 23/20 Q1015 NOSIG
TAF FCBB 232300Z 2400/2506 25004KT 9000 FEW020
       
FCPP 240000Z 00000KT 6000 FEW008 SCT022 23/22 Q1014 NOSIG
TAF FCPP 232300Z 2400/2424 20010KT 8000 SCT016 
     PROB30 2401/2405 VRB03KT 4800 BR